createdAt,value
2022-10-31T00:01:17.286Z,19.83
2022-10-31T00:03:44.386Z,19.75
2022-10-31T00:06:11.829Z,19.55
2022-10-31T00:08:38.979Z,25.85
2022-10-31T00:11:10.656Z,23.08
2022-10-31T00:13:37.783Z,21.55
2022-10-31T00:16:05.914Z,24.25
2022-10-31T00:18:33.001Z,23.52
2022-10-31T00:21:04.630Z,25.92
2022-10-31T00:23:32.065Z,21.00
2022-10-31T00:26:03.592Z,24.55
2022-10-31T00:28:31.491Z,20.67
2022-10-31T00:31:07.094Z,21.52
2022-10-31T00:33:36.097Z,25.70
2022-10-31T00:36:04.001Z,19.35
2022-10-31T00:38:32.006Z,21.00
2022-10-31T00:40:59.232Z,20.45
2022-10-31T00:43:26.325Z,19.88
2022-10-31T00:45:53.442Z,20.55
2022-10-31T00:48:20.851Z,17.63
2022-10-31T00:50:49.823Z,20.35
2022-10-31T00:53:17.136Z,25.95
2022-10-31T00:55:44.271Z,22.33
2022-10-31T00:58:11.550Z,20.98
2022-10-31T01:00:38.837Z,20.85
2022-10-31T01:03:06.063Z,23.67
2022-10-31T01:05:33.214Z,21.33
2022-10-31T01:08:00.389Z,21.80
2022-10-31T01:10:28.124Z,19.50
2022-10-31T01:12:55.242Z,23.05
2022-10-31T01:15:23.714Z,19.42
2022-10-31T01:17:51.022Z,20.65
2022-10-31T01:20:18.679Z,22.75
2022-10-31T01:22:46.028Z,20.10
2022-10-31T01:25:13.451Z,17.25
2022-10-31T01:27:40.662Z,20.98
2022-10-31T01:30:08.578Z,17.83
2022-10-31T01:32:35.741Z,15.35
2022-10-31T01:35:03.162Z,21.50
2022-10-31T01:37:32.039Z,26.27
2022-10-31T01:39:59.185Z,18.55
2022-10-31T01:42:26.363Z,22.13
2022-10-31T01:45:01.109Z,19.75
2022-10-31T01:47:47.978Z,22.23
2022-10-31T01:50:41.750Z,17.15
2022-10-31T01:53:10.492Z,16.75
2022-10-31T01:55:42.423Z,19.77
2022-10-31T01:58:15.716Z,19.38
2022-10-31T02:00:50.166Z,22.33
2022-10-31T02:03:19.611Z,14.95
2022-10-31T02:05:47.499Z,19.92
2022-10-31T02:08:21.102Z,19.38
2022-10-31T02:10:50.633Z,16.08
2022-10-31T02:13:19.528Z,21.67
2022-10-31T02:15:53.397Z,16.88
2022-10-31T02:18:21.677Z,15.90
2022-10-31T02:20:59.917Z,17.73
2022-10-31T02:23:54.048Z,14.32
2022-10-31T02:26:32.670Z,13.13
2022-10-31T02:29:20.147Z,15.63
2022-10-31T02:32:03.773Z,17.70
2022-10-31T02:34:38.802Z,21.73
2022-10-31T02:37:14.793Z,15.75
2022-10-31T02:39:50.854Z,16.27
2022-10-31T02:42:42.386Z,16.30
2022-10-31T02:45:22.205Z,15.65
2022-10-31T02:47:54.745Z,17.30
2022-10-31T02:53:04.093Z,21.25
2022-10-31T02:55:31.813Z,18.42
2022-10-31T02:58:06.233Z,16.98
2022-10-31T03:00:44.845Z,20.13
2022-10-31T03:03:18.072Z,15.90
2022-10-31T03:05:57.503Z,19.40
2022-10-31T03:08:36.000Z,19.40
2022-10-31T03:11:07.793Z,19.27
2022-10-31T03:14:10.057Z,15.38
2022-10-31T03:16:46.094Z,20.17
2022-10-31T03:19:27.380Z,15.30
2022-10-31T03:22:05.682Z,15.25
2022-10-31T03:24:38.173Z,15.20
2022-10-31T03:27:08.618Z,20.52
2022-10-31T03:29:38.834Z,15.45
2022-10-31T03:32:11.540Z,17.80
2022-10-31T03:34:42.421Z,15.63
2022-10-31T03:37:14.957Z,17.00
2022-10-31T03:39:45.315Z,17.40
2022-10-31T03:42:16.412Z,15.68
2022-10-31T03:44:47.948Z,15.55
2022-10-31T03:47:15.571Z,13.30
2022-10-31T03:49:42.809Z,19.90
2022-10-31T03:52:31.973Z,22.55
2022-10-31T03:55:05.926Z,16.05
2022-10-31T03:57:39.158Z,16.45
2022-10-31T04:00:11.109Z,16.50
2022-10-31T04:03:00.106Z,16.88
2022-10-31T04:05:32.051Z,13.32
2022-10-31T04:08:04.405Z,13.40
2022-10-31T04:10:35.448Z,14.35
2022-10-31T04:13:08.241Z,15.50
2022-10-31T04:15:53.736Z,17.70
2022-10-31T04:18:24.696Z,18.40
2022-10-31T04:21:01.624Z,16.58
2022-10-31T04:23:29.485Z,17.15
2022-10-31T04:25:57.016Z,23.58
2022-10-31T04:28:24.299Z,22.50
2022-10-31T04:30:52.291Z,17.45
2022-10-31T04:33:20.154Z,18.88
2022-10-31T04:35:48.419Z,16.25
2022-10-31T04:38:15.864Z,21.20
2022-10-31T04:40:45.705Z,16.60
2022-10-31T04:43:32.845Z,17.65
2022-10-31T04:46:01.764Z,26.35
2022-10-31T04:48:29.133Z,17.50
2022-10-31T04:51:03.269Z,20.45
2022-10-31T04:53:30.554Z,15.85
2022-10-31T04:56:20.873Z,19.20
2022-10-31T04:58:51.245Z,16.83
2022-10-31T05:01:19.684Z,21.00
2022-10-31T05:03:46.909Z,14.52
2022-10-31T05:06:14.072Z,17.77
2022-10-31T05:08:43.033Z,14.23
2022-10-31T05:11:12.045Z,20.60
2022-10-31T05:13:39.943Z,19.90
2022-10-31T05:16:26.973Z,16.27
2022-10-31T05:19:23.024Z,25.90
2022-10-31T05:22:16.440Z,15.87
2022-10-31T05:24:43.779Z,15.45
2022-10-31T05:27:11.221Z,14.90
2022-10-31T05:29:38.325Z,14.25
2022-10-31T05:32:05.871Z,17.67
2022-10-31T05:34:51.208Z,15.52
2022-10-31T05:37:41.817Z,14.70
2022-10-31T05:40:11.355Z,16.25
2022-10-31T05:42:43.061Z,20.08
2022-10-31T05:45:12.669Z,14.95
2022-10-31T05:48:06.048Z,17.85
2022-10-31T05:50:51.529Z,13.57
2022-10-31T05:53:18.829Z,17.25
2022-10-31T05:55:47.942Z,20.08
2022-10-31T05:58:19.876Z,14.75
2022-10-31T06:00:58.564Z,16.48
2022-10-31T06:03:25.774Z,14.45
2022-10-31T06:05:56.225Z,14.25
2022-10-31T06:08:32.407Z,25.05
2022-10-31T06:11:03.822Z,17.60
2022-10-31T06:13:50.843Z,16.10
2022-10-31T06:16:25.152Z,17.42
2022-10-31T06:18:54.357Z,15.30
2022-10-31T06:21:22.353Z,16.35
2022-10-31T06:23:51.780Z,16.50
2022-10-31T06:26:30.605Z,17.25
2022-10-31T06:29:01.432Z,19.92
2022-10-31T06:32:00.357Z,17.73
2022-10-31T06:34:29.177Z,16.27
2022-10-31T06:36:56.276Z,18.45
2022-10-31T06:39:25.869Z,16.45
2022-10-31T06:41:54.056Z,15.55
2022-10-31T06:44:23.223Z,20.48
2022-10-31T06:46:56.365Z,20.07
2022-10-31T06:49:46.315Z,15.40
2022-10-31T06:52:16.655Z,15.65
2022-10-31T06:54:43.781Z,18.52
2022-10-31T06:57:10.948Z,15.15
2022-10-31T06:59:39.699Z,14.85
2022-10-31T07:02:10.534Z,16.30
2022-10-31T07:04:38.543Z,15.55
2022-10-31T07:07:06.009Z,17.60
2022-10-31T07:09:34.048Z,14.68
2022-10-31T07:12:04.406Z,15.27
2022-10-31T07:14:33.670Z,15.70
2022-10-31T07:17:01.920Z,20.27
2022-10-31T07:19:39.637Z,15.50
2022-10-31T07:22:06.765Z,14.23
2022-10-31T07:24:35.151Z,13.00
2022-10-31T07:27:41.688Z,12.02
2022-10-31T07:30:13.049Z,13.95
2022-10-31T07:32:44.983Z,12.13
2022-10-31T07:35:25.666Z,10.15
2022-10-31T07:38:08.687Z,16.17
2022-10-31T07:40:35.961Z,11.93
2022-10-31T07:43:03.661Z,9.40
2022-10-31T07:45:53.497Z,10.45
2022-10-31T07:48:43.699Z,10.73
2022-10-31T07:51:29.395Z,8.38
2022-10-31T07:54:14.805Z,9.00
2022-10-31T07:56:42.949Z,13.82
2022-10-31T07:59:10.119Z,8.07
2022-10-31T08:01:37.267Z,8.75
2022-10-31T08:04:30.551Z,11.70
2022-10-31T08:07:16.292Z,9.90
2022-10-31T08:09:49.441Z,8.60
2022-10-31T08:12:20.948Z,9.13
2022-10-31T08:14:48.223Z,13.07
2022-10-31T08:17:18.632Z,8.73
2022-10-31T08:19:56.592Z,10.68
2022-10-31T08:22:29.905Z,9.50
2022-10-31T08:24:57.052Z,11.32
2022-10-31T08:27:24.212Z,11.00
2022-10-31T08:29:51.337Z,9.95
2022-10-31T08:32:19.161Z,8.32
2022-10-31T08:34:58.636Z,13.27
2022-10-31T08:37:44.243Z,10.70
2022-10-31T08:40:12.478Z,18.23
2022-10-31T08:42:41.117Z,25.40
2022-10-31T08:45:08.682Z,17.33
2022-10-31T08:47:36.673Z,21.50
2022-10-31T08:50:05.465Z,21.75
2022-10-31T08:52:58.723Z,16.52
2022-10-31T08:55:20.110Z,22.60
2022-10-31T08:58:18.503Z,20.23
2022-10-31T09:00:53.104Z,20.08
2022-10-31T09:03:27.711Z,21.77
2022-10-31T09:06:01.808Z,20.67
2022-10-31T09:08:33.217Z,23.17
2022-10-31T09:11:02.972Z,26.30
2022-10-31T09:13:48.693Z,27.42
2022-10-31T09:16:15.757Z,26.40
2022-10-31T09:18:44.048Z,26.98
2022-10-31T09:21:11.806Z,24.63
2022-10-31T09:23:39.344Z,31.35
2022-10-31T09:26:07.388Z,29.75
2022-10-31T09:28:38.027Z,27.60
2022-10-31T09:31:10.771Z,26.10
2022-10-31T09:33:50.320Z,23.17
2022-10-31T09:36:40.681Z,22.92
2022-10-31T09:39:27.993Z,26.60
2022-10-31T09:45:26.174Z,21.25
2022-10-31T09:48:27.420Z,29.85
2022-10-31T09:51:31.772Z,28.35
2022-10-31T09:54:37.819Z,31.88
2022-10-31T09:57:06.521Z,22.98
2022-10-31T09:59:41.625Z,26.00
2022-10-31T10:02:19.521Z,21.15
2022-10-31T10:05:04.916Z,26.17
2022-10-31T10:08:18.881Z,21.80
2022-10-31T10:11:39.954Z,25.00
2022-10-31T10:14:40.052Z,23.00
2022-10-31T10:17:32.761Z,23.17
2022-10-31T10:20:50.211Z,22.65
2022-10-31T10:23:43.454Z,23.05
2022-10-31T10:26:13.469Z,17.23
2022-10-31T10:28:46.376Z,22.90
2022-10-31T10:31:20.949Z,22.27
2022-10-31T10:34:11.352Z,22.15
2022-10-31T10:37:06.556Z,17.65
2022-10-31T10:39:44.585Z,20.10
2022-10-31T10:42:32.449Z,19.58
2022-10-31T10:45:20.022Z,21.60
2022-10-31T10:47:56.250Z,20.98
2022-10-31T10:50:35.489Z,22.83
2022-10-31T10:53:22.453Z,19.60
2022-10-31T10:55:57.940Z,25.50
2022-10-31T10:58:25.146Z,21.30
2022-10-31T11:00:55.137Z,21.10
2022-10-31T11:03:22.576Z,26.52
2022-10-31T11:06:02.127Z,27.45
2022-10-31T11:08:36.969Z,21.27
2022-10-31T11:11:24.303Z,21.17
2022-10-31T11:13:58.000Z,16.40
2022-10-31T11:16:36.795Z,16.38
2022-10-31T11:19:27.833Z,20.95
2022-10-31T11:21:55.351Z,18.58
2022-10-31T11:24:27.115Z,16.42
2022-10-31T11:27:14.157Z,18.35
2022-10-31T11:29:41.260Z,15.93
2022-10-31T11:32:20.442Z,19.35
2022-10-31T11:34:52.429Z,25.77
2022-10-31T11:37:46.615Z,16.35
2022-10-31T11:40:25.806Z,17.02
2022-10-31T11:42:58.324Z,18.40
2022-10-31T11:45:33.528Z,20.73
2022-10-31T11:48:03.499Z,18.05
2022-10-31T11:50:40.246Z,13.90
2022-10-31T11:53:36.769Z,19.90
2022-10-31T11:56:14.673Z,13.88
2022-10-31T11:58:42.670Z,17.15
2022-10-31T12:01:29.269Z,20.17
2022-10-31T12:04:10.191Z,14.27
2022-10-31T12:06:40.316Z,17.55
2022-10-31T12:09:33.789Z,15.75
2022-10-31T12:12:34.097Z,15.75
2022-10-31T12:15:29.921Z,22.15
2022-10-31T12:18:15.635Z,14.82
2022-10-31T12:21:03.913Z,16.63
2022-10-31T12:23:49.092Z,15.85
2022-10-31T12:26:31.577Z,17.80
2022-10-31T12:29:35.948Z,18.07
2022-10-31T12:32:32.541Z,18.75
2022-10-31T12:35:19.276Z,14.00
2022-10-31T12:38:23.104Z,17.13
2022-10-31T12:40:59.368Z,13.77
2022-10-31T12:43:26.526Z,17.35
2022-10-31T12:45:58.763Z,13.85
2022-10-31T12:48:25.862Z,13.25
2022-10-31T12:51:10.717Z,11.40
2022-10-31T12:54:15.041Z,15.05
2022-10-31T12:57:12.847Z,15.95
2022-10-31T12:59:51.692Z,14.40
2022-10-31T13:02:21.308Z,20.42
2022-10-31T13:04:58.113Z,15.45
2022-10-31T13:07:44.350Z,15.13
2022-10-31T13:10:26.681Z,13.32
2022-10-31T13:12:59.272Z,18.80
2022-10-31T13:15:30.910Z,13.95
2022-10-31T13:18:02.027Z,15.30
2022-10-31T13:20:33.334Z,13.85
2022-10-31T13:23:29.675Z,12.20
2022-10-31T13:26:01.229Z,14.05
2022-10-31T13:29:05.638Z,13.00
2022-10-31T13:31:33.838Z,18.33
2022-10-31T13:34:09.439Z,15.40
2022-10-31T13:36:45.800Z,11.45
2022-10-31T13:39:36.493Z,13.85
2022-10-31T13:42:23.209Z,16.02
2022-10-31T13:44:50.474Z,15.35
2022-10-31T13:47:30.541Z,11.50
2022-10-31T13:50:36.172Z,12.20
2022-10-31T13:53:15.063Z,10.38
2022-10-31T13:55:45.300Z,9.05
2022-10-31T13:58:38.612Z,10.68
2022-10-31T14:01:05.843Z,11.55
2022-10-31T14:04:03.290Z,11.82
2022-10-31T14:06:35.290Z,11.55
2022-10-31T14:09:02.797Z,16.25
2022-10-31T14:11:34.522Z,8.60
2022-10-31T14:14:12.880Z,10.80
2022-10-31T14:16:44.138Z,10.27
2022-10-31T14:19:21.769Z,10.65
2022-10-31T14:21:49.937Z,11.45
2022-10-31T14:24:25.896Z,8.23
2022-10-31T14:27:01.404Z,13.10
2022-10-31T14:29:31.379Z,13.20
2022-10-31T14:32:13.764Z,11.82
2022-10-31T14:34:53.439Z,15.00
2022-10-31T14:37:57.469Z,9.77
2022-10-31T14:40:32.232Z,11.63
2022-10-31T14:43:21.090Z,15.77
2022-10-31T14:46:09.413Z,14.95
2022-10-31T14:48:52.171Z,9.82
2022-10-31T14:51:26.302Z,12.77
2022-10-31T14:53:56.024Z,17.23
2022-10-31T14:56:27.398Z,12.88
2022-10-31T14:58:58.385Z,10.07
2022-10-31T15:01:28.833Z,9.00
2022-10-31T15:07:04.478Z,10.80
2022-10-31T15:09:34.296Z,12.00
2022-10-31T15:12:17.681Z,11.68
2022-10-31T15:14:44.770Z,9.30
2022-10-31T15:17:12.985Z,13.23
2022-10-31T15:19:40.528Z,13.63
2022-10-31T15:22:15.080Z,8.98
2022-10-31T15:24:43.359Z,9.15
2022-10-31T15:27:17.113Z,11.57
2022-10-31T15:29:52.900Z,15.52
2022-10-31T15:32:23.828Z,13.48
2022-10-31T15:34:52.814Z,11.18
2022-10-31T15:37:25.825Z,15.30
2022-10-31T15:39:53.435Z,13.02
2022-10-31T15:42:30.960Z,11.05
2022-10-31T15:45:02.128Z,14.52
2022-10-31T15:47:31.796Z,14.82
2022-10-31T15:50:01.425Z,13.90
2022-10-31T15:52:34.788Z,15.07
2022-10-31T15:57:34.296Z,13.60
2022-10-31T16:00:01.449Z,9.93
2022-10-31T16:02:28.718Z,12.32
2022-10-31T16:04:59.778Z,11.32
2022-10-31T16:07:28.125Z,11.18
2022-10-31T16:10:04.145Z,12.90
2022-10-31T16:12:43.473Z,14.43
2022-10-31T16:15:19.987Z,11.48
2022-10-31T16:17:49.560Z,11.30
2022-10-31T16:20:23.349Z,14.10
2022-10-31T16:22:52.338Z,16.80
2022-10-31T16:25:30.975Z,9.07
2022-10-31T16:30:48.537Z,7.93
2022-10-31T16:33:41.295Z,10.43
2022-10-31T16:36:35.196Z,13.07
2022-10-31T16:39:04.034Z,11.73
2022-10-31T16:41:32.613Z,9.88
2022-10-31T16:44:03.360Z,18.83
2022-10-31T16:46:30.588Z,12.20
2022-10-31T16:48:58.166Z,11.90
2022-10-31T16:51:25.241Z,10.80
2022-10-31T16:53:54.308Z,17.40
2022-10-31T16:56:32.393Z,10.07
2022-10-31T16:59:02.536Z,14.25
2022-10-31T17:01:30.594Z,14.38
2022-10-31T17:03:58.083Z,13.52
2022-10-31T17:06:28.348Z,14.50
2022-10-31T17:08:55.574Z,15.15
2022-10-31T17:11:26.523Z,20.85
2022-10-31T17:13:54.948Z,20.65
2022-10-31T17:16:22.081Z,15.30
2022-10-31T17:18:49.288Z,12.45
2022-10-31T17:21:24.776Z,16.45
2022-10-31T17:23:52.185Z,14.88
2022-10-31T17:26:19.833Z,16.25
2022-10-31T17:28:46.945Z,14.93
2022-10-31T17:31:27.920Z,15.55
2022-10-31T17:34:01.929Z,17.90
2022-10-31T17:36:34.643Z,16.52
2022-10-31T17:39:03.487Z,16.88
2022-10-31T17:41:30.634Z,21.00
2022-10-31T17:43:59.137Z,11.27
2022-10-31T17:46:28.299Z,17.55
2022-10-31T17:48:55.464Z,20.17
2022-10-31T17:51:22.537Z,17.63
2022-10-31T17:53:49.651Z,15.93
2022-10-31T17:56:16.745Z,11.55
2022-10-31T17:58:43.955Z,17.48
2022-10-31T18:01:14.023Z,16.08
2022-10-31T18:03:41.820Z,17.90
2022-10-31T18:06:10.528Z,19.60
2022-10-31T18:08:39.726Z,18.02
2022-10-31T18:11:12.104Z,18.90
2022-10-31T18:13:39.351Z,18.20
2022-10-31T18:16:15.316Z,22.67
2022-10-31T18:18:42.947Z,20.60
2022-10-31T18:21:10.582Z,18.33
2022-10-31T18:23:37.689Z,21.42
2022-10-31T18:26:05.129Z,18.85
2022-10-31T18:28:32.268Z,20.70
2022-10-31T18:31:00.506Z,12.93
2022-10-31T18:33:28.301Z,18.33
2022-10-31T18:35:55.773Z,19.75
2022-10-31T18:38:23.485Z,20.50
2022-10-31T18:40:51.533Z,26.52
2022-10-31T18:43:18.651Z,19.33
2022-10-31T18:45:48.653Z,26.17
2022-10-31T18:48:17.556Z,15.80
2022-10-31T18:50:44.901Z,29.67
2022-10-31T18:53:12.022Z,21.65
2022-10-31T18:55:44.039Z,19.30
2022-10-31T18:58:14.609Z,23.23
2022-10-31T19:00:41.811Z,26.02
2022-10-31T19:03:08.948Z,27.05
2022-10-31T19:05:36.083Z,18.55
2022-10-31T19:08:04.156Z,24.48
2022-10-31T19:10:33.809Z,22.30
2022-10-31T19:13:01.173Z,19.20
2022-10-31T19:15:28.524Z,22.92
2022-10-31T19:17:56.025Z,23.27
2022-10-31T19:20:23.157Z,18.63
2022-10-31T19:22:50.282Z,28.92
2022-10-31T19:25:17.538Z,24.55
2022-10-31T19:27:44.837Z,25.15
2022-10-31T19:30:12.709Z,18.67
2022-10-31T19:32:39.800Z,22.85
2022-10-31T19:35:11.474Z,22.20
2022-10-31T19:37:40.153Z,23.80
2022-10-31T19:40:09.022Z,25.98
2022-10-31T19:42:36.177Z,19.90
2022-10-31T19:45:04.618Z,28.58
2022-10-31T19:47:31.727Z,22.05
2022-10-31T19:49:58.889Z,26.92
2022-10-31T19:52:26.125Z,26.92
2022-10-31T19:54:53.282Z,38.15
2022-10-31T19:57:35.891Z,39.90
2022-10-31T20:00:08.004Z,41.38
2022-10-31T20:02:40.937Z,40.72
2022-10-31T20:05:08.703Z,28.45
2022-10-31T20:07:36.024Z,34.40
2022-10-31T20:10:03.340Z,31.55
2022-10-31T20:12:32.896Z,36.05
2022-10-31T20:15:00.047Z,24.13
2022-10-31T20:17:27.190Z,35.38
2022-10-31T20:19:54.436Z,44.38
2022-10-31T20:22:21.557Z,42.80
2022-10-31T20:24:48.641Z,38.60
2022-10-31T20:27:15.784Z,35.28
2022-10-31T20:29:42.990Z,34.28
2022-10-31T20:32:10.184Z,30.58
2022-10-31T20:34:38.977Z,32.90
2022-10-31T20:37:06.112Z,35.85
2022-10-31T20:39:34.534Z,41.58
2022-10-31T20:42:01.666Z,29.58
2022-10-31T20:44:29.160Z,40.08
2022-10-31T20:46:56.609Z,30.85
2022-10-31T20:49:23.730Z,29.20
2022-10-31T20:51:50.970Z,32.10
2022-10-31T20:54:19.983Z,28.35
2022-10-31T20:56:47.100Z,33.53
2022-10-31T20:59:15.144Z,29.05
2022-10-31T21:01:42.404Z,24.80
2022-10-31T21:04:11.918Z,28.10
2022-10-31T21:06:39.376Z,27.77
2022-10-31T21:09:06.677Z,27.00
2022-10-31T21:11:33.827Z,35.60
2022-10-31T21:14:01.033Z,27.02
2022-10-31T21:16:31.262Z,37.92
2022-10-31T21:19:00.629Z,28.55
2022-10-31T21:21:32.595Z,27.52
2022-10-31T21:24:06.490Z,34.13
2022-10-31T21:29:03.263Z,30.35
2022-10-31T21:31:31.317Z,29.80
2022-10-31T21:33:58.533Z,31.67
2022-10-31T21:36:26.221Z,27.02
2022-10-31T21:38:55.081Z,24.98
2022-10-31T21:41:23.821Z,29.45
2022-10-31T21:43:54.217Z,30.83
2022-10-31T21:46:24.584Z,29.85
2022-10-31T21:48:52.268Z,32.80
2022-10-31T21:51:21.174Z,21.52
2022-10-31T21:54:06.886Z,26.95
2022-10-31T21:56:34.827Z,26.13
2022-10-31T21:59:02.025Z,29.70
2022-10-31T22:01:29.631Z,29.85
2022-10-31T22:03:57.830Z,24.95
2022-10-31T22:06:30.131Z,30.95
2022-10-31T22:09:02.081Z,25.95
2022-10-31T22:11:29.581Z,24.48
2022-10-31T22:13:59.428Z,31.63
2022-10-31T22:16:29.050Z,31.48
2022-10-31T22:18:59.214Z,28.98
2022-10-31T22:21:27.929Z,36.22
2022-10-31T22:24:03.329Z,36.25
2022-10-31T22:26:33.073Z,36.15
2022-10-31T22:29:02.688Z,39.83
2022-10-31T22:31:31.233Z,44.63
2022-10-31T22:33:58.808Z,38.03
2022-10-31T22:36:28.235Z,44.70
2022-10-31T22:38:55.492Z,33.97
2022-10-31T22:41:25.966Z,35.42
2022-10-31T22:43:54.535Z,39.08
2022-10-31T22:46:24.169Z,34.50
2022-10-31T22:48:54.045Z,30.85
2022-10-31T22:51:26.709Z,34.67
2022-10-31T22:53:56.601Z,39.45
2022-10-31T22:56:26.508Z,45.38
2022-10-31T22:58:53.919Z,43.10
2022-10-31T23:01:24.032Z,36.65
2022-10-31T23:03:51.542Z,42.35
2022-10-31T23:06:24.146Z,45.72
2022-10-31T23:08:52.752Z,49.38
2022-10-31T23:11:25.825Z,42.55
2022-10-31T23:14:13.413Z,38.47
2022-10-31T23:16:40.462Z,44.38
2022-10-31T23:19:09.177Z,42.80
2022-10-31T23:22:00.115Z,39.42
2022-10-31T23:24:42.425Z,44.72
2022-10-31T23:27:16.963Z,37.55
2022-10-31T23:29:45.733Z,43.08
2022-10-31T23:32:35.280Z,43.08
2022-10-31T23:35:05.595Z,39.22
2022-10-31T23:37:35.166Z,50.10
2022-10-31T23:40:03.183Z,45.83
2022-10-31T23:42:30.385Z,46.42
2022-10-31T23:44:58.058Z,45.83
2022-10-31T23:47:25.461Z,46.60
2022-10-31T23:49:52.543Z,52.80
2022-10-31T23:52:19.717Z,42.15
2022-10-31T23:54:46.996Z,43.63
2022-10-31T23:57:15.138Z,40.28
2022-10-31T23:59:42.275Z,33.72
